createdAt,value
2017-05-31T00:00:05.314Z,20.41
2017-05-31T00:00:31.464Z,20.48
2017-05-31T00:00:57.595Z,20.37
2017-05-31T00:01:23.807Z,20.41
2017-05-31T00:01:49.959Z,20.41
2017-05-31T00:02:16.124Z,20.47
2017-05-31T00:02:42.262Z,20.48
2017-05-31T00:03:08.410Z,20.4
2017-05-31T00:03:34.546Z,20.41
2017-05-31T00:04:00.679Z,20.41
2017-05-31T00:04:26.834Z,20.5
2017-05-31T00:04:53.007Z,20.5
2017-05-31T00:05:19.175Z,20.43
2017-05-31T00:05:45.324Z,20.47
2017-05-31T00:06:11.469Z,20.26
2017-05-31T00:06:37.605Z,20.4
2017-05-31T00:07:03.754Z,20.39
2017-05-31T00:07:29.902Z,20.39
2017-05-31T00:07:56.029Z,20.44
2017-05-31T00:08:22.207Z,20.37
2017-05-31T00:08:48.428Z,20.4
2017-05-31T00:09:14.631Z,20.37
2017-05-31T00:09:40.771Z,20.47
2017-05-31T00:10:06.912Z,20.48
2017-05-31T00:10:33.057Z,20.4
2017-05-31T00:10:59.208Z,20.47
2017-05-31T00:11:25.341Z,20.43
2017-05-31T00:11:51.481Z,20.4
2017-05-31T00:12:17.631Z,20.43
2017-05-31T00:12:43.802Z,20.44
2017-05-31T00:13:09.972Z,20.41
2017-05-31T00:13:36.122Z,20.28
2017-05-31T00:14:02.259Z,20.32
2017-05-31T00:14:28.393Z,20.25
2017-05-31T00:14:54.546Z,20.24
2017-05-31T00:15:20.684Z,20.18
2017-05-31T00:15:46.831Z,20.06
2017-05-31T00:16:12.964Z,20.04
2017-05-31T00:16:39.102Z,20.03
2017-05-31T00:17:05.251Z,20.09
2017-05-31T00:17:31.388Z,20.1
2017-05-31T00:17:57.553Z,20.04
2017-05-31T00:18:23.706Z,20.09
2017-05-31T00:18:49.847Z,20.03
2017-05-31T00:19:15.976Z,19.91
2017-05-31T00:19:42.125Z,20.07
2017-05-31T00:20:08.305Z,20.03
2017-05-31T00:20:34.469Z,19.99
2017-05-31T00:21:00.654Z,19.96
2017-05-31T00:21:26.790Z,19.96
2017-05-31T00:21:52.943Z,19.89
2017-05-31T00:22:19.083Z,20.03
2017-05-31T00:22:45.217Z,19.92
2017-05-31T00:23:11.437Z,20.04
2017-05-31T00:23:37.619Z,20.04
2017-05-31T00:24:03.753Z,19.89
2017-05-31T00:24:29.900Z,19.79
2017-05-31T00:24:56.053Z,19.85
2017-05-31T00:25:22.185Z,19.86
2017-05-31T00:25:48.362Z,19.85
2017-05-31T00:26:14.512Z,19.79
2017-05-31T00:26:40.645Z,19.81
2017-05-31T00:27:06.791Z,19.84
2017-05-31T00:27:32.925Z,19.71
2017-05-31T00:27:59.073Z,19.74
2017-05-31T00:28:25.224Z,19.84
2017-05-31T00:28:51.357Z,19.84
2017-05-31T00:29:17.496Z,19.89
2017-05-31T00:29:43.647Z,19.81
2017-05-31T00:30:09.780Z,19.84
2017-05-31T00:30:35.954Z,19.76
2017-05-31T00:31:02.141Z,19.79
2017-05-31T00:31:28.274Z,19.81
2017-05-31T00:31:54.440Z,19.77
2017-05-31T00:32:20.590Z,19.7
2017-05-31T00:32:46.733Z,19.81
2017-05-31T00:33:12.881Z,19.84
2017-05-31T00:33:39.044Z,19.84
2017-05-31T00:34:05.184Z,19.71
2017-05-31T00:34:31.335Z,19.66
2017-05-31T00:34:57.478Z,19.7
2017-05-31T00:35:23.605Z,19.71
2017-05-31T00:35:49.764Z,19.79
2017-05-31T00:36:15.935Z,19.88
2017-05-31T00:36:42.064Z,19.81
2017-05-31T00:37:08.249Z,19.82
2017-05-31T00:37:34.464Z,19.81
2017-05-31T00:38:00.606Z,19.81
2017-05-31T00:38:26.745Z,19.7
2017-05-31T00:38:52.878Z,19.63
2017-05-31T00:39:19.031Z,19.7
2017-05-31T00:39:45.172Z,19.66
2017-05-31T00:40:11.339Z,19.71
2017-05-31T00:40:37.487Z,19.7
2017-05-31T00:41:03.632Z,19.71
2017-05-31T00:41:29.766Z,19.66
2017-05-31T00:41:55.913Z,19.7
2017-05-31T00:42:22.060Z,19.66
2017-05-31T00:42:48.261Z,19.62
2017-05-31T00:43:14.402Z,19.58
2017-05-31T00:43:40.540Z,19.55
2017-05-31T00:44:06.690Z,19.56
2017-05-31T00:44:32.837Z,19.52
2017-05-31T00:44:59.065Z,19.55
2017-05-31T00:45:25.241Z,19.51
2017-05-31T00:45:51.391Z,19.56
2017-05-31T00:46:17.520Z,19.59
2017-05-31T00:46:43.672Z,19.54
2017-05-31T00:47:09.823Z,19.49
2017-05-31T00:47:35.989Z,19.58
2017-05-31T00:48:02.159Z,19.56
2017-05-31T00:48:28.346Z,19.58
2017-05-31T00:48:54.483Z,19.59
2017-05-31T00:49:20.647Z,19.67
2017-05-31T00:49:46.800Z,19.67
2017-05-31T00:50:12.939Z,19.59
2017-05-31T00:50:39.073Z,19.59
2017-05-31T00:51:05.232Z,19.62
2017-05-31T00:51:31.376Z,19.63
2017-05-31T00:51:57.513Z,19.67
2017-05-31T00:52:23.692Z,19.69
2017-05-31T00:52:49.842Z,19.64
2017-05-31T00:53:15.971Z,19.64
2017-05-31T00:53:42.114Z,19.58
2017-05-31T00:54:08.262Z,19.55
2017-05-31T00:54:34.395Z,19.44
2017-05-31T00:55:00.541Z,19.49
2017-05-31T00:55:26.676Z,19.54
2017-05-31T00:55:52.855Z,19.39
2017-05-31T00:56:19.004Z,19.51
2017-05-31T00:56:45.135Z,19.52
2017-05-31T00:57:11.278Z,19.51
2017-05-31T00:57:37.438Z,19.52
2017-05-31T00:58:03.574Z,19.58
2017-05-31T00:58:29.748Z,19.58
2017-05-31T00:58:55.899Z,19.56
2017-05-31T00:59:22.036Z,19.64
2017-05-31T00:59:48.233Z,19.54
2017-05-31T01:00:14.379Z,19.58
2017-05-31T01:00:40.553Z,19.59
2017-05-31T01:01:06.739Z,19.62
2017-05-31T01:01:32.871Z,19.58
2017-05-31T01:01:59.009Z,19.58
2017-05-31T01:02:25.159Z,19.58
2017-05-31T01:02:51.299Z,19.56
2017-05-31T01:03:17.429Z,19.56
2017-05-31T01:03:43.619Z,19.63
2017-05-31T01:04:09.760Z,19.56
2017-05-31T01:04:35.896Z,19.63
2017-05-31T01:05:02.056Z,19.51
2017-05-31T01:05:28.199Z,19.58
2017-05-31T01:05:54.341Z,19.58
2017-05-31T01:06:20.476Z,19.56
2017-05-31T01:06:46.609Z,19.59
2017-05-31T01:07:12.764Z,19.64
2017-05-31T01:07:38.906Z,19.63
2017-05-31T01:08:05.036Z,19.62
2017-05-31T01:08:31.223Z,19.59
2017-05-31T01:08:57.403Z,19.66
2017-05-31T01:09:23.570Z,19.58
2017-05-31T01:09:49.719Z,19.62
2017-05-31T01:10:15.868Z,19.62
2017-05-31T01:10:41.999Z,19.55
2017-05-31T01:11:08.138Z,19.62
2017-05-31T01:11:34.289Z,19.54
2017-05-31T01:12:00.420Z,19.52
2017-05-31T01:12:26.621Z,19.47
2017-05-31T01:12:52.807Z,19.49
2017-05-31T01:13:18.978Z,19.55
2017-05-31T01:13:45.112Z,19.58
2017-05-31T01:14:11.265Z,19.59
2017-05-31T01:14:37.407Z,19.58
2017-05-31T01:15:03.613Z,19.56
2017-05-31T01:15:29.759Z,19.59
2017-05-31T01:15:55.904Z,19.62
2017-05-31T01:16:22.069Z,19.51
2017-05-31T01:16:48.215Z,19.59
2017-05-31T01:17:14.350Z,19.63
2017-05-31T01:17:40.505Z,19.58
2017-05-31T01:18:06.642Z,19.58
2017-05-31T01:18:32.775Z,19.58
2017-05-31T01:18:58.925Z,19.64
2017-05-31T01:19:25.120Z,19.59
2017-05-31T01:19:51.253Z,19.59
2017-05-31T01:20:17.437Z,19.63
2017-05-31T01:20:43.586Z,19.55
2017-05-31T01:21:09.753Z,19.58
2017-05-31T01:21:35.928Z,19.54
2017-05-31T01:22:02.077Z,19.58
2017-05-31T01:22:28.245Z,19.67
2017-05-31T01:22:54.426Z,19.63
2017-05-31T01:23:20.590Z,19.54
2017-05-31T01:23:46.736Z,19.49
2017-05-31T01:24:12.888Z,19.39
2017-05-31T01:24:39.049Z,19.37
2017-05-31T01:25:05.192Z,19.34
2017-05-31T01:25:31.375Z,19.29
2017-05-31T01:25:57.510Z,19.27
2017-05-31T01:26:23.649Z,19.3
2017-05-31T01:26:49.799Z,19.31
2017-05-31T01:27:15.969Z,19.27
2017-05-31T01:27:42.101Z,19.33
2017-05-31T01:28:08.247Z,19.33
2017-05-31T01:28:34.389Z,19.24
2017-05-31T01:29:00.538Z,19.24
2017-05-31T01:29:26.670Z,19.22
2017-05-31T01:29:52.809Z,19.27
2017-05-31T01:30:18.957Z,19.22
2017-05-31T01:30:45.092Z,19.22
2017-05-31T01:31:11.257Z,19.22
2017-05-31T01:31:37.410Z,19.3
2017-05-31T01:32:03.550Z,19.24
2017-05-31T01:32:29.751Z,19.26
2017-05-31T01:32:55.901Z,19.16
2017-05-31T01:33:22.043Z,19.14
2017-05-31T01:33:48.213Z,19.26
2017-05-31T01:34:14.369Z,19.22
2017-05-31T01:34:40.516Z,19.14
2017-05-31T01:35:06.671Z,19.24
2017-05-31T01:35:32.849Z,19.12
2017-05-31T01:35:58.999Z,19.14
2017-05-31T01:36:25.131Z,19.04
2017-05-31T01:36:51.302Z,19.14
2017-05-31T01:37:17.452Z,19.11
2017-05-31T01:37:43.628Z,19.08
2017-05-31T01:38:09.758Z,19.14
2017-05-31T01:38:35.948Z,19.11
2017-05-31T01:39:02.088Z,19.14
2017-05-31T01:39:28.233Z,19.09
2017-05-31T01:39:54.418Z,19.08
2017-05-31T01:40:20.555Z,19.09
2017-05-31T01:40:46.705Z,19.04
2017-05-31T01:41:12.841Z,19.04
2017-05-31T01:41:38.976Z,19.04
2017-05-31T01:42:05.166Z,19.09
2017-05-31T01:42:31.308Z,19.09
2017-05-31T01:42:57.439Z,19.11
2017-05-31T01:43:23.591Z,19.11
2017-05-31T01:43:49.737Z,19.09
2017-05-31T01:44:15.874Z,19.07
2017-05-31T01:44:42.052Z,19.04
2017-05-31T01:45:08.183Z,19.04
2017-05-31T01:45:34.336Z,19.08
2017-05-31T01:46:00.476Z,19.14
2017-05-31T01:46:26.608Z,19.09
2017-05-31T01:46:52.762Z,19.14
2017-05-31T01:47:18.902Z,19.16
2017-05-31T01:47:45.070Z,19.07
2017-05-31T01:48:11.248Z,19.18
2017-05-31T01:48:37.437Z,19.18
2017-05-31T01:49:03.567Z,19.14
2017-05-31T01:49:29.743Z,19.04
2017-05-31T01:49:55.927Z,19.16
2017-05-31T01:50:22.097Z,19.08
2017-05-31T01:50:48.280Z,19.16
2017-05-31T01:51:14.411Z,19.18
2017-05-31T01:51:40.588Z,19.07
2017-05-31T01:52:06.737Z,19.09
2017-05-31T01:52:32.868Z,19.09
2017-05-31T01:52:59.045Z,19.11
2017-05-31T01:53:25.195Z,19.12
2017-05-31T01:53:51.329Z,19.04
2017-05-31T01:54:17.468Z,19
2017-05-31T01:54:43.616Z,19.08
2017-05-31T01:55:09.754Z,19.04
2017-05-31T01:55:35.885Z,19.08
2017-05-31T01:56:02.032Z,19.08
2017-05-31T01:56:28.171Z,19
2017-05-31T01:56:54.319Z,19.08
2017-05-31T01:57:20.483Z,19.12
2017-05-31T01:57:46.626Z,19.07
2017-05-31T01:58:12.777Z,19.11
2017-05-31T01:58:38.915Z,19.02
2017-05-31T01:59:05.048Z,19.11
2017-05-31T01:59:31.238Z,19.07
2017-05-31T01:59:57.377Z,19.02
2017-05-31T02:00:23.508Z,19.04
2017-05-31T02:00:49.657Z,19
2017-05-31T02:01:15.801Z,19.04
2017-05-31T02:01:41.945Z,19.07
2017-05-31T02:02:08.083Z,19.08
2017-05-31T02:02:34.216Z,19.04
2017-05-31T02:03:00.405Z,19.09
2017-05-31T02:03:26.617Z,19.09
2017-05-31T02:03:52.748Z,19.04
2017-05-31T02:04:18.930Z,19
2017-05-31T02:04:45.074Z,19
2017-05-31T02:05:11.205Z,19.07
2017-05-31T02:05:37.350Z,19.02
2017-05-31T02:06:03.499Z,19.07
2017-05-31T02:06:29.626Z,18.98
2017-05-31T02:06:55.768Z,19.04
2017-05-31T02:07:21.909Z,19
2017-05-31T02:07:48.123Z,19.02
2017-05-31T02:08:14.269Z,19.04
2017-05-31T02:08:40.404Z,19.09
2017-05-31T02:09:06.589Z,19.02
2017-05-31T02:09:32.755Z,18.95
2017-05-31T02:09:58.867Z,18.98
2017-05-31T02:10:25.043Z,19.02
2017-05-31T02:10:51.193Z,18.92
2017-05-31T02:11:17.327Z,18.89
2017-05-31T02:11:43.463Z,18.88
2017-05-31T02:12:09.612Z,18.86
2017-05-31T02:12:35.749Z,18.74
2017-05-31T02:13:01.899Z,18.71
2017-05-31T02:13:28.061Z,18.73
2017-05-31T02:13:54.236Z,18.68
2017-05-31T02:14:20.390Z,18.73
2017-05-31T02:14:46.554Z,18.7
2017-05-31T02:15:12.691Z,18.68
2017-05-31T02:15:38.840Z,18.75
2017-05-31T02:16:04.975Z,18.71
2017-05-31T02:16:31.111Z,18.75
2017-05-31T02:16:57.301Z,18.81
2017-05-31T02:17:23.442Z,18.74
2017-05-31T02:17:49.576Z,18.78
2017-05-31T02:18:15.725Z,18.73
2017-05-31T02:18:41.904Z,18.84
2017-05-31T02:19:08.036Z,18.8
2017-05-31T02:19:34.183Z,18.8
2017-05-31T02:20:00.334Z,18.81
2017-05-31T02:20:26.530Z,18.78
2017-05-31T02:20:52.671Z,18.74
2017-05-31T02:21:18.822Z,18.75
2017-05-31T02:21:44.955Z,18.77
2017-05-31T02:22:11.124Z,18.73
2017-05-31T02:22:37.310Z,18.56
2017-05-31T02:23:03.447Z,18.65
2017-05-31T02:23:30.569Z,18.62
2017-05-31T02:23:56.718Z,18.58
2017-05-31T02:24:22.864Z,18.6
2017-05-31T02:24:49.080Z,18.7
2017-05-31T02:25:15.278Z,18.68
2017-05-31T02:25:41.415Z,18.52
2017-05-31T02:26:07.566Z,18.77
2017-05-31T02:26:33.738Z,18.59
2017-05-31T02:26:59.874Z,18.62
2017-05-31T02:27:26.026Z,18.62
2017-05-31T02:27:52.202Z,18.6
2017-05-31T02:28:18.338Z,18.55
2017-05-31T02:28:44.557Z,18.52
2017-05-31T02:29:10.701Z,18.66
2017-05-31T02:29:36.879Z,18.65
2017-05-31T02:30:03.018Z,18.62
2017-05-31T02:30:29.502Z,18.62
2017-05-31T02:30:55.655Z,18.55
2017-05-31T02:31:21.830Z,18.68
2017-05-31T02:31:47.999Z,18.6
2017-05-31T02:32:14.148Z,18.53
2017-05-31T02:32:40.363Z,18.68
2017-05-31T02:33:06.534Z,18.65
2017-05-31T02:33:32.713Z,18.6
2017-05-31T02:33:58.860Z,18.56
2017-05-31T02:34:25.029Z,18.65
2017-05-31T02:34:51.205Z,18.73
2017-05-31T02:35:17.378Z,18.81
2017-05-31T02:35:43.527Z,18.74
2017-05-31T02:36:09.672Z,18.68
2017-05-31T02:36:35.805Z,18.63
2017-05-31T02:37:01.986Z,18.62
2017-05-31T02:37:28.134Z,18.66
2017-05-31T02:37:54.265Z,18.55
2017-05-31T02:38:20.407Z,18.66
2017-05-31T02:38:46.591Z,18.59
2017-05-31T02:39:12.726Z,18.7
2017-05-31T02:39:38.896Z,18.55
2017-05-31T02:40:05.081Z,18.68
2017-05-31T02:40:31.218Z,18.7
2017-05-31T02:40:57.403Z,18.74
2017-05-31T02:41:23.533Z,18.65
2017-05-31T02:41:49.675Z,18.5
2017-05-31T02:42:15.829Z,18.55
2017-05-31T02:42:41.995Z,18.53
2017-05-31T02:43:08.200Z,18.52
2017-05-31T02:43:34.386Z,18.63
2017-05-31T02:44:00.558Z,18.55
2017-05-31T02:44:26.690Z,18.49
2017-05-31T02:44:52.842Z,18.56
2017-05-31T02:45:18.980Z,18.47
2017-05-31T02:45:45.115Z,18.56
2017-05-31T02:46:11.267Z,18.56
2017-05-31T02:46:37.469Z,18.5
2017-05-31T02:47:03.617Z,18.59
2017-05-31T02:47:29.756Z,18.52
2017-05-31T02:47:55.920Z,18.58
2017-05-31T02:48:22.112Z,18.59
2017-05-31T02:48:48.319Z,18.59
2017-05-31T02:49:14.450Z,18.52
2017-05-31T02:49:40.635Z,18.53
2017-05-31T02:50:06.775Z,18.52
2017-05-31T02:50:32.947Z,18.55
2017-05-31T02:50:59.093Z,18.53
2017-05-31T02:51:25.278Z,18.53
2017-05-31T02:51:51.447Z,18.55
2017-05-31T02:52:17.587Z,18.52
2017-05-31T02:52:43.721Z,18.49
2017-05-31T02:53:09.871Z,18.43
2017-05-31T02:53:36.015Z,18.45
2017-05-31T02:54:02.148Z,18.4
2017-05-31T02:54:28.293Z,18.52
2017-05-31T02:54:54.477Z,18.53
2017-05-31T02:55:20.610Z,18.49
2017-05-31T02:55:46.788Z,18.56
2017-05-31T02:56:12.940Z,18.6
2017-05-31T02:56:39.075Z,18.7
2017-05-31T02:57:05.212Z,18.68
2017-05-31T02:57:31.353Z,18.66
2017-05-31T02:57:57.497Z,18.66
2017-05-31T02:58:23.648Z,18.7
2017-05-31T02:58:49.836Z,18.71
2017-05-31T02:59:15.944Z,18.65
2017-05-31T02:59:42.095Z,18.63
2017-05-31T03:00:08.229Z,18.65
2017-05-31T03:00:34.402Z,18.65
2017-05-31T03:01:00.551Z,18.6
2017-05-31T03:01:26.689Z,18.55
2017-05-31T03:01:52.920Z,18.53
2017-05-31T03:02:19.074Z,18.55
2017-05-31T03:02:45.251Z,18.6
2017-05-31T03:03:11.386Z,18.6
2017-05-31T03:03:37.572Z,18.68
2017-05-31T03:04:03.751Z,18.62
2017-05-31T03:04:29.883Z,18.56
2017-05-31T03:04:56.030Z,18.53
2017-05-31T03:05:22.178Z,18.53
2017-05-31T03:05:48.344Z,18.62
2017-05-31T03:06:14.488Z,18.62
2017-05-31T03:06:40.636Z,18.59
2017-05-31T03:07:06.771Z,18.58
2017-05-31T03:07:32.908Z,18.59
2017-05-31T03:07:59.058Z,18.62
2017-05-31T03:08:25.197Z,18.5
2017-05-31T03:08:51.380Z,18.63
2017-05-31T03:09:17.513Z,18.6
2017-05-31T03:09:43.656Z,18.59
2017-05-31T03:10:09.806Z,18.63
2017-05-31T03:10:35.942Z,18.55
2017-05-31T03:11:02.084Z,18.59
2017-05-31T03:11:28.269Z,18.53
2017-05-31T03:11:54.409Z,18.66
2017-05-31T03:12:20.540Z,18.56
2017-05-31T03:12:46.727Z,18.56
2017-05-31T03:13:12.865Z,18.53
2017-05-31T03:13:39.001Z,18.53
2017-05-31T03:14:05.150Z,18.6
2017-05-31T03:14:31.287Z,18.59
2017-05-31T03:14:57.473Z,18.59
2017-05-31T03:15:23.612Z,18.5
2017-05-31T03:15:49.778Z,18.56
2017-05-31T03:16:15.931Z,18.56
2017-05-31T03:16:42.072Z,18.52
2017-05-31T03:17:08.204Z,18.47
2017-05-31T03:17:34.354Z,18.43
2017-05-31T03:18:00.501Z,18.43
2017-05-31T03:18:26.668Z,18.38
2017-05-31T03:18:52.848Z,18.41
2017-05-31T03:19:19.033Z,18.35
2017-05-31T03:19:45.170Z,18.37
2017-05-31T03:20:11.308Z,18.37
2017-05-31T03:20:37.442Z,18.41
2017-05-31T03:21:03.592Z,18.47
2017-05-31T03:21:29.736Z,18.43
2017-05-31T03:21:55.865Z,18.47
2017-05-31T03:22:22.049Z,18.49
2017-05-31T03:22:48.234Z,18.49
2017-05-31T03:23:14.366Z,18.47
2017-05-31T03:23:40.508Z,18.49
2017-05-31T03:24:06.694Z,18.53
2017-05-31T03:24:32.825Z,18.55
2017-05-31T03:24:58.962Z,18.58
2017-05-31T03:25:25.139Z,18.49
2017-05-31T03:25:51.284Z,18.53
2017-05-31T03:26:17.435Z,18.5
2017-05-31T03:26:43.598Z,18.47
2017-05-31T03:27:09.775Z,18.53
2017-05-31T03:27:35.924Z,18.55
2017-05-31T03:28:02.090Z,18.56
2017-05-31T03:28:28.229Z,18.49
2017-05-31T03:28:54.415Z,18.52
2017-05-31T03:29:20.625Z,18.55
2017-05-31T03:29:46.758Z,18.52
2017-05-31T03:30:12.912Z,18.52
2017-05-31T03:30:39.086Z,18.53
2017-05-31T03:31:05.268Z,18.52
2017-05-31T03:31:31.400Z,18.47
2017-05-31T03:31:57.538Z,18.55
2017-05-31T03:32:23.690Z,18.5
2017-05-31T03:32:49.899Z,18.62
2017-05-31T03:33:16.034Z,18.55
2017-05-31T03:33:42.186Z,18.45
2017-05-31T03:34:08.437Z,18.45
2017-05-31T03:34:34.575Z,18.44
2017-05-31T03:35:00.726Z,18.38
2017-05-31T03:35:26.871Z,18.4
2017-05-31T03:35:53.006Z,18.47
2017-05-31T03:36:19.151Z,18.52
2017-05-31T03:36:45.281Z,18.43
2017-05-31T03:37:11.509Z,18.47
2017-05-31T03:37:37.651Z,18.41
2017-05-31T03:38:03.783Z,18.41
2017-05-31T03:38:29.933Z,18.34
2017-05-31T03:38:56.077Z,18.49
2017-05-31T03:39:22.210Z,18.55
2017-05-31T03:39:48.359Z,18.55
2017-05-31T03:40:14.510Z,18.53
2017-05-31T03:40:40.675Z,18.5
2017-05-31T03:41:06.819Z,18.52
2017-05-31T03:41:33.005Z,18.47
2017-05-31T03:41:59.139Z,18.49
2017-05-31T03:42:25.284Z,18.5
2017-05-31T03:42:51.451Z,18.53
2017-05-31T03:43:17.597Z,18.52
2017-05-31T03:43:43.746Z,18.49
2017-05-31T03:44:09.878Z,18.5
2017-05-31T03:44:36.022Z,18.45
2017-05-31T03:45:02.208Z,18.5
2017-05-31T03:45:28.340Z,18.52
2017-05-31T03:45:54.514Z,18.53
2017-05-31T03:46:20.664Z,18.5
2017-05-31T03:46:46.801Z,18.5
2017-05-31T03:47:12.933Z,18.5
2017-05-31T03:47:39.085Z,18.56
2017-05-31T03:48:05.225Z,18.53
2017-05-31T03:48:31.425Z,18.55
2017-05-31T03:48:57.612Z,18.52
2017-05-31T03:49:23.791Z,18.52
2017-05-31T03:49:49.924Z,18.45
2017-05-31T03:50:16.107Z,18.44
2017-05-31T03:50:42.258Z,18.43
2017-05-31T03:51:08.422Z,18.33
2017-05-31T03:51:34.565Z,18.28
2017-05-31T03:52:00.715Z,18.37
2017-05-31T03:52:26.850Z,18.34
2017-05-31T03:52:52.991Z,18.35
2017-05-31T03:53:19.132Z,18.37
2017-05-31T03:53:45.277Z,18.45
2017-05-31T03:54:11.426Z,18.47
2017-05-31T03:54:37.590Z,18.41
2017-05-31T03:55:03.732Z,18.41
2017-05-31T03:55:29.883Z,18.38
2017-05-31T03:55:56.088Z,18.33
2017-05-31T03:56:22.263Z,18.44
2017-05-31T03:56:48.414Z,18.38
2017-05-31T03:57:14.586Z,18.43
2017-05-31T03:57:40.751Z,18.43
2017-05-31T03:58:06.903Z,18.52
2017-05-31T03:58:33.077Z,18.49
2017-05-31T03:58:59.285Z,18.55
2017-05-31T03:59:25.364Z,18.52
2017-05-31T03:59:51.502Z,18.55
2017-05-31T04:00:17.722Z,18.56
2017-05-31T04:00:43.859Z,18.6
2017-05-31T04:01:09.995Z,18.63
2017-05-31T04:01:36.185Z,18.65
2017-05-31T04:02:02.324Z,18.52
2017-05-31T04:02:28.454Z,18.6
2017-05-31T04:02:54.637Z,18.59
2017-05-31T04:03:20.815Z,18.59
2017-05-31T04:03:46.950Z,18.62
2017-05-31T04:04:13.101Z,18.59
2017-05-31T04:04:39.236Z,18.5
2017-05-31T04:05:05.388Z,18.5
2017-05-31T04:05:31.532Z,18.52
2017-05-31T04:05:57.663Z,18.45
2017-05-31T04:06:23.813Z,18.58
2017-05-31T04:06:49.956Z,18.52
2017-05-31T04:07:16.127Z,18.53
2017-05-31T04:07:42.305Z,18.49
2017-05-31T04:08:08.455Z,18.53
2017-05-31T04:08:34.589Z,18.45
2017-05-31T04:09:00.731Z,18.52
2017-05-31T04:09:26.918Z,18.52
2017-05-31T04:09:53.085Z,18.45
2017-05-31T04:10:19.234Z,18.47
2017-05-31T04:10:45.366Z,18.44
2017-05-31T04:11:11.510Z,18.4
2017-05-31T04:11:37.729Z,18.4
2017-05-31T04:12:03.859Z,18.52
2017-05-31T04:12:30.033Z,18.47
2017-05-31T04:12:56.182Z,18.35
2017-05-31T04:13:22.317Z,18.44
2017-05-31T04:13:48.589Z,18.49
2017-05-31T04:14:14.737Z,18.43
2017-05-31T04:14:40.909Z,18.53
2017-05-31T04:15:07.073Z,18.55
2017-05-31T04:15:33.221Z,18.53
2017-05-31T04:15:59.394Z,18.53
2017-05-31T04:16:25.593Z,18.53
2017-05-31T04:16:51.725Z,18.5
2017-05-31T04:17:17.865Z,18.38
2017-05-31T04:17:44.051Z,18.4
2017-05-31T04:18:10.186Z,18.43
2017-05-31T04:18:36.319Z,18.43
2017-05-31T04:19:02.510Z,18.44
2017-05-31T04:19:28.649Z,18.41
2017-05-31T04:19:54.784Z,18.38
2017-05-31T04:20:20.934Z,18.43
2017-05-31T04:20:47.149Z,18.45
2017-05-31T04:21:13.325Z,18.41
2017-05-31T04:21:39.496Z,18.41
2017-05-31T04:22:05.663Z,18.45
2017-05-31T04:22:31.853Z,18.44
2017-05-31T04:22:57.995Z,18.35
2017-05-31T04:23:24.162Z,18.4
2017-05-31T04:23:50.317Z,18.41
2017-05-31T04:24:16.491Z,18.4
2017-05-31T04:24:42.625Z,18.45
2017-05-31T04:25:08.800Z,18.4
2017-05-31T04:25:34.951Z,18.43
2017-05-31T04:26:01.116Z,18.53
2017-05-31T04:26:27.295Z,18.37
2017-05-31T04:26:53.431Z,18.52
2017-05-31T04:27:19.579Z,18.5
2017-05-31T04:27:45.724Z,18.47
2017-05-31T04:28:11.857Z,18.52
2017-05-31T04:28:38.004Z,18.47
2017-05-31T04:29:04.190Z,18.37
2017-05-31T04:29:30.354Z,18.4
2017-05-31T04:29:56.499Z,18.53
2017-05-31T04:30:22.651Z,18.53
2017-05-31T04:30:48.786Z,18.55
2017-05-31T04:31:14.960Z,18.52
2017-05-31T04:31:41.145Z,18.52
2017-05-31T04:32:07.282Z,18.52
2017-05-31T04:32:33.416Z,18.52
2017-05-31T04:32:59.568Z,18.5
2017-05-31T04:33:25.709Z,18.37
2017-05-31T04:33:51.879Z,18.4
2017-05-31T04:34:18.060Z,18.45
2017-05-31T04:34:44.202Z,18.5
2017-05-31T04:35:10.336Z,18.49
2017-05-31T04:35:36.482Z,18.49
2017-05-31T04:36:02.633Z,18.53
2017-05-31T04:36:28.766Z,18.52
2017-05-31T04:36:54.942Z,18.55
2017-05-31T04:37:21.094Z,18.53
2017-05-31T04:37:47.264Z,18.58
2017-05-31T04:38:13.411Z,18.59
2017-05-31T04:38:39.543Z,18.65
2017-05-31T04:39:05.689Z,18.65
2017-05-31T04:39:31.840Z,18.65
2017-05-31T04:39:58.007Z,18.63
2017-05-31T04:40:24.212Z,18.63
2017-05-31T04:40:50.363Z,18.62
2017-05-31T04:41:16.499Z,18.56
2017-05-31T04:41:42.639Z,18.7
2017-05-31T04:42:08.788Z,18.56
2017-05-31T04:42:34.926Z,18.77
2017-05-31T04:43:01.059Z,18.84
2017-05-31T04:43:27.209Z,18.8
2017-05-31T04:43:53.346Z,18.98
2017-05-31T04:44:19.497Z,19.24
2017-05-31T04:44:45.662Z,19.37
2017-05-31T04:45:11.800Z,19.55
2017-05-31T04:45:37.951Z,19.82
2017-05-31T04:46:04.087Z,20.06
2017-05-31T04:46:30.221Z,20.31
2017-05-31T04:46:56.377Z,20.44
2017-05-31T04:47:22.518Z,20.59
2017-05-31T04:47:48.688Z,20.74
2017-05-31T04:48:14.842Z,20.9
2017-05-31T04:48:40.985Z,20.99
2017-05-31T04:49:07.127Z,21.05
2017-05-31T04:49:33.264Z,21.32
2017-05-31T04:49:59.398Z,21.45
2017-05-31T04:50:25.549Z,21.7
2017-05-31T04:50:51.689Z,21.82
2017-05-31T04:51:17.824Z,21.93
2017-05-31T04:51:43.975Z,22.02
2017-05-31T04:52:10.119Z,22.13
2017-05-31T04:52:36.252Z,22.1
2017-05-31T04:53:02.434Z,22.11
2017-05-31T04:53:28.612Z,22.15
2017-05-31T04:53:54.743Z,22.32
2017-05-31T04:54:20.887Z,22.45
2017-05-31T04:54:47.032Z,22.54
2017-05-31T04:55:13.208Z,22.54
2017-05-31T04:55:39.352Z,22.54
2017-05-31T04:56:05.523Z,22.63
2017-05-31T04:56:31.669Z,22.75
2017-05-31T04:56:57.856Z,22.9
2017-05-31T04:57:23.988Z,23
2017-05-31T04:57:50.131Z,23.12
2017-05-31T04:58:16.316Z,23.03
2017-05-31T04:58:42.450Z,23.12
2017-05-31T04:59:08.590Z,23.09
2017-05-31T04:59:34.740Z,23.15
2017-05-31T05:00:00.877Z,23.13
2017-05-31T05:00:27.049Z,23.03
2017-05-31T05:00:53.202Z,23.06
2017-05-31T05:01:19.377Z,23.02
2017-05-31T05:01:45.526Z,22.83
2017-05-31T05:02:12.045Z,22.9
2017-05-31T05:02:38.216Z,22.93
2017-05-31T05:03:04.368Z,22.91
2017-05-31T05:03:30.505Z,22.85
2017-05-31T05:03:56.670Z,22.88
2017-05-31T05:04:22.855Z,22.91
2017-05-31T05:04:48.997Z,22.88
2017-05-31T05:05:15.131Z,22.83
2017-05-31T05:05:41.282Z,22.87
2017-05-31T05:06:07.420Z,22.68
2017-05-31T05:06:33.570Z,22.66
2017-05-31T05:06:59.708Z,22.59
2017-05-31T05:07:25.842Z,22.54
2017-05-31T05:07:52.033Z,22.5
2017-05-31T05:08:18.174Z,22.45
2017-05-31T05:08:44.309Z,22.47
2017-05-31T05:09:10.459Z,22.41
2017-05-31T05:09:36.605Z,22.39
2017-05-31T05:10:02.738Z,22.28
2017-05-31T05:10:28.886Z,22.15
2017-05-31T05:10:55.036Z,22.17
2017-05-31T05:11:21.176Z,22.13
2017-05-31T05:11:47.318Z,22
2017-05-31T05:12:13.486Z,21.98
2017-05-31T05:12:39.636Z,21.76
2017-05-31T05:13:05.781Z,21.62
2017-05-31T05:13:31.920Z,21.54
2017-05-31T05:13:58.066Z,21.57
2017-05-31T05:14:24.253Z,21.58
2017-05-31T05:14:50.385Z,21.42
2017-05-31T05:15:16.570Z,21.36
2017-05-31T05:15:42.759Z,21.42
2017-05-31T05:16:08.891Z,21.36
2017-05-31T05:16:35.097Z,21.32
2017-05-31T05:17:01.281Z,21.21
2017-05-31T05:17:27.420Z,21.24
2017-05-31T05:17:53.558Z,21.17
2017-05-31T05:18:19.705Z,21.12
2017-05-31T05:18:45.883Z,21.06
2017-05-31T05:19:12.016Z,21.05
2017-05-31T05:19:38.201Z,20.92
2017-05-31T05:20:04.349Z,20.93
2017-05-31T05:20:30.483Z,20.95
2017-05-31T05:20:56.667Z,20.9
2017-05-31T05:21:22.854Z,20.74
2017-05-31T05:21:49.020Z,20.7
2017-05-31T05:22:15.229Z,20.78
2017-05-31T05:22:41.442Z,20.72
2017-05-31T05:23:07.536Z,20.7
2017-05-31T05:23:33.681Z,20.65
2017-05-31T05:23:59.814Z,20.69
2017-05-31T05:24:25.960Z,20.65
2017-05-31T05:24:52.112Z,20.59
2017-05-31T05:25:18.246Z,20.59
2017-05-31T05:25:44.387Z,20.47
2017-05-31T05:26:10.613Z,20.5
2017-05-31T05:26:36.782Z,20.36
2017-05-31T05:27:02.924Z,20.48
2017-05-31T05:27:29.111Z,20.43
2017-05-31T05:27:55.252Z,20.41
2017-05-31T05:28:21.400Z,20.4
2017-05-31T05:28:47.531Z,20.43
2017-05-31T05:29:13.675Z,20.43
2017-05-31T05:29:39.829Z,20.47
2017-05-31T05:30:05.994Z,20.37
2017-05-31T05:30:32.226Z,20.47
2017-05-31T05:30:58.331Z,20.41
2017-05-31T05:31:24.505Z,20.43
2017-05-31T05:31:50.639Z,20.41
2017-05-31T05:32:17.090Z,20.29
2017-05-31T05:32:43.266Z,20.4
2017-05-31T05:33:09.397Z,20.47
2017-05-31T05:33:35.548Z,20.52
2017-05-31T05:34:01.691Z,20.41
2017-05-31T05:34:27.840Z,20.43
2017-05-31T05:34:53.979Z,20.47
2017-05-31T05:35:20.113Z,20.44
2017-05-31T05:35:46.302Z,20.5
2017-05-31T05:36:12.442Z,20.7
2017-05-31T05:36:38.612Z,20.69
2017-05-31T05:37:04.761Z,20.78
2017-05-31T05:37:30.940Z,20.74
2017-05-31T05:37:57.073Z,20.77
2017-05-31T05:38:23.221Z,20.8